Disclaimer

Please do not use the information listed here in-flight or in-navigation, as they are not provided to us by the airports but are provided by volunteers, so they might be outdated.

Search


Regions


Airport information page

No radio frequency information is available.

Airport informations:
Latitude: 44° 53' 36.72" N
Longitude: 013° 55' 19.89" E
Elevation: 274 feet - 84 meters
Operating hours: Remarks
Operating agency: Civil government, landing fees and diplomatic clearance may be required
Timezone: UTC+1(+2DT) - Last Sunday in March to last Sunday in October
Fuel: Jet A+, Kerosene fuel, Type A, Jet A or JP-1 With icing inhibitor.

100/130 MIL Spec, low lead, aviation gasoline (BLUE)

Runway information:
09/27 - 9678 x 148 feet< - >2950 x 45 meters

Recent METARs:
LDPL 182000Z 04009KT 9999 FEW030 04/M01 Q1013 NOSIG
LDPL 182030Z 04008KT 9999 FEW030 04/M01 Q1013 NOSIG
LDPL 182100Z 04008KT CAVOK 04/M01 Q1013 NOSIG

Airport on the map: